Time;durP1;ratioP1;P1;durP2;ratioP2;P2;SDS_P1;SDS_P2;PMS_P1;PMS_P2;Temp;Humidity;BMP_temperature;BMP_pressure;BME280_temperature;BME280_humidity;BME280_pressure;Samples;Min_cycle;Max_cycle;Signal;HPM_P1;HPM_P2
2023/02/26 00:01:29;;;;;;;7.37;6.43;;;8.50;99.90;;;;;;4971227;28;20864;-69
2023/02/26 00:04:00;;;;;;;7.90;7.03;;;8.50;99.90;;;;;;4971663;28;20418;-69
2023/02/26 00:06:31;;;;;;;7.67;6.07;;;8.60;99.90;;;;;;4962914;28;20850;-69
2023/02/26 00:09:05;;;;;;;8.50;6.53;;;8.60;99.90;;;;;;4966724;28;20193;-70
2023/02/26 00:11:32;;;;;;;8.90;6.27;;;8.60;99.90;;;;;;4980136;28;20698;-69
2023/02/26 00:13:59;;;;;;;7.47;6.33;;;8.60;99.90;;;;;;4987742;28;20283;-70
2023/02/26 00:16:31;;;;;;;12.10;6.30;;;8.60;99.90;;;;;;4977413;28;20212;-69
2023/02/26 00:19:01;;;;;;;10.10;7.00;;;8.60;99.90;;;;;;4980858;28;20263;-69
2023/02/26 00:21:29;;;;;;;7.40;6.40;;;8.60;99.90;;;;;;4986615;28;20238;-69
2023/02/26 00:23:55;;;;;;;7.33;6.50;;;8.60;99.90;;;;;;4981652;28;20937;-69
2023/02/26 00:26:28;;;;;;;8.17;6.33;;;8.50;99.90;;;;;;4971102;28;20273;-69
2023/02/26 00:28:55;;;;;;;8.83;6.23;;;8.50;99.90;;;;;;4984937;28;20368;-69
2023/02/26 00:31:23;;;;;;;8.40;6.40;;;8.60;99.90;;;;;;4983753;28;20297;-69
2023/02/26 00:33:51;;;;;;;6.93;5.90;;;8.50;99.90;;;;;;4948872;28;20201;-69
2023/02/26 00:36:24;;;;;;;9.10;6.90;;;8.50;99.90;;;;;;4984633;28;20206;-69
2023/02/26 00:39:06;;;;;;;8.23;6.17;;;8.50;99.90;;;;;;4985231;28;20727;-69
2023/02/26 00:41:32;;;;;;;8.03;6.47;;;8.60;99.90;;;;;;4984136;28;20186;-69
2023/02/26 00:43:59;;;;;;;8.60;6.50;;;8.60;99.90;;;;;;4953062;28;20192;-69
2023/02/26 00:46:49;;;;;;;7.70;6.60;;;8.60;99.90;;;;;;4984652;28;20660;-70
2023/02/26 00:49:50;;;;;;;8.37;6.13;;;8.50;99.90;;;;;;4985524;28;20268;-69
2023/02/26 00:52:46;;;;;;;12.27;6.63;;;8.50;99.90;;;;;;4981678;28;20197;-69
2023/02/26 00:55:18;;;;;;;8.07;6.07;;;8.40;99.90;;;;;;4983683;28;20190;-69
2023/02/26 00:57:45;;;;;;;7.47;6.77;;;8.40;99.90;;;;;;4984667;28;20736;-69
2023/02/26 01:00:18;;;;;;;7.47;6.73;;;8.40;99.90;;;;;;4984358;28;20216;-69
2023/02/26 01:02:45;;;;;;;8.13;6.57;;;8.40;99.90;;;;;;4983745;28;20197;-72
2023/02/26 01:05:16;;;;;;;9.37;6.33;;;8.40;99.90;;;;;;4984151;28;20945;-72
2023/02/26 01:08:29;;;;;;;8.60;6.57;;;8.40;99.90;;;;;;4983623;28;20212;-72
2023/02/26 01:10:56;;;;;;;7.73;6.53;;;8.40;99.90;;;;;;4981666;28;20528;-72
2023/02/26 01:13:22;;;;;;;9.25;7.32;;;8.40;99.90;;;;;;4964599;28;20413;-72
2023/02/26 01:16:01;;;;;;;9.53;6.37;;;8.50;99.90;;;;;;4966254;28;20197;-72
2023/02/26 01:19:03;;;;;;;7.13;6.23;;;8.40;99.90;;;;;;4949542;28;20220;-72
2023/02/26 01:21:41;;;;;;;6.93;6.10;;;8.30;99.90;;;;;;4962115;28;20186;-72
2023/02/26 01:24:15;;;;;;;11.63;6.03;;;8.20;99.90;;;;;;4981377;28;20217;-72
2023/02/26 01:26:42;;;;;;;6.87;5.70;;;8.20;99.90;;;;;;4979749;28;20204;-72
2023/02/26 01:29:08;;;;;;;7.77;6.17;;;8.10;99.90;;;;;;4980125;28;20596;-72
2023/02/26 01:32:17;;;;;;;6.93;6.23;;;8.10;99.90;;;;;;4963058;28;20262;-72
2023/02/26 01:35:35;;;;;;;7.93;5.97;;;8.10;99.90;;;;;;4885881;29;20802;-72
2023/02/26 01:38:38;;;;;;;9.43;6.10;;;8.10;99.90;;;;;;4980736;28;20224;-72
2023/02/26 01:41:48;;;;;;;6.90;6.20;;;8.10;99.90;;;;;;4974790;28;20910;-72
2023/02/26 01:44:34;;;;;;;6.70;5.87;;;8.20;99.90;;;;;;4939171;28;20205;-72
2023/02/26 01:47:25;;;;;;;8.83;6.40;;;8.10;99.90;;;;;;4963417;28;20301;-72
2023/02/26 01:49:52;;;;;;;7.77;6.27;;;8.10;99.90;;;;;;4963494;28;20190;-72
2023/02/26 01:52:49;;;;;;;7.10;6.13;;;8.00;99.90;;;;;;4964504;28;20217;-72
2023/02/26 01:55:22;;;;;;;7.13;6.30;;;8.00;99.90;;;;;;4978776;28;20841;-72
2023/02/26 01:57:56;;;;;;;7.20;6.43;;;8.00;99.90;;;;;;4965514;28;20206;-72
2023/02/26 02:00:22;;;;;;;7.77;6.53;;;8.00;99.90;;;;;;4980315;28;20256;-72
2023/02/26 02:02:51;;;;;;;7.10;6.20;;;8.00;99.90;;;;;;4978441;28;20177;-72
2023/02/26 02:05:30;;;;;;;7.97;7.17;;;8.00;99.90;;;;;;4963512;28;20186;-72
2023/02/26 02:07:58;;;;;;;9.18;7.25;;;8.00;99.90;;;;;;4960098;28;20426;-72
2023/02/26 02:10:26;;;;;;;8.40;6.67;;;8.00;99.90;;;;;;4978106;28;20186;-72
2023/02/26 02:12:58;;;;;;;8.67;7.10;;;8.00;99.90;;;;;;4980736;28;20668;-72
2023/02/26 02:15:45;;;;;;;9.77;6.67;;;8.00;99.90;;;;;;4978167;28;20550;-72
2023/02/26 02:18:55;;;;;;;7.97;7.20;;;8.00;99.90;;;;;;4962584;28;20513;-72
2023/02/26 02:22:02;;;;;;;8.35;7.55;;;8.00;99.90;;;;;;4981523;28;20516;-72
2023/02/26 02:25:20;;;;;;;7.60;6.90;;;8.00;99.90;;;;;;4974985;28;20190;-72
2023/02/26 02:28:04;;;;;;;7.20;6.50;;;8.00;99.90;;;;;;4953062;28;20229;-72
2023/02/26 02:31:19;;;;;;;10.37;7.40;;;8.10;99.90;;;;;;4966563;28;20220;-72
2023/02/26 02:34:11;;;;;;;9.57;7.40;;;8.10;99.90;;;;;;4890637;29;20566;-72
2023/02/26 02:37:04;;;;;;;10.73;7.40;;;8.10;99.90;;;;;;4885431;29;20204;-72
2023/02/26 02:39:58;;;;;;;8.90;8.00;;;8.10;99.90;;;;;;4957056;28;20829;-72
2023/02/26 02:42:41;;;;;;;9.93;7.90;;;8.10;99.90;;;;;;4974245;28;20209;-72
2023/02/26 02:45:28;;;;;;;9.03;7.37;;;8.10;99.90;;;;;;4984230;28;20190;-72
2023/02/26 02:48:20;;;;;;;10.33;7.47;;;8.20;99.90;;;;;;4986699;28;20259;-72
2023/02/26 02:50:54;;;;;;;10.67;7.60;;;8.10;99.90;;;;;;4980663;28;20204;-70
2023/02/26 02:53:25;;;;;;;8.10;7.17;;;8.20;99.90;;;;;;4975897;28;21194;-70
2023/02/26 02:56:06;;;;;;;9.67;7.43;;;8.20;99.90;;;;;;4963468;28;20356;-70
2023/02/26 02:58:47;;;;;;;9.40;7.07;;;8.20;99.90;;;;;;4982595;28;20221;-70
2023/02/26 03:01:18;;;;;;;7.93;7.10;;;8.20;99.90;;;;;;4982437;28;21133;-70
2023/02/26 03:03:55;;;;;;;16.07;7.67;;;8.20;99.90;;;;;;4963093;28;20193;-70
2023/02/26 03:06:22;;;;;;;9.20;7.47;;;8.20;99.90;;;;;;4978200;28;20894;-70
2023/02/26 03:08:51;;;;;;;9.17;6.77;;;8.20;99.90;;;;;;4978527;28;20656;-69
2023/02/26 03:11:18;;;;;;;8.68;7.85;;;8.10;99.90;;;;;;4953282;28;20416;-70
2023/02/26 03:13:46;;;;;;;8.30;6.93;;;8.10;99.90;;;;;;4978908;28;20189;-70
2023/02/26 03:16:32;;;;;;;9.25;8.23;;;8.10;99.90;;;;;;4981346;28;20431;-70
2023/02/26 03:19:40;;;;;;;8.88;7.75;;;8.10;99.90;;;;;;4976215;28;20416;-70
2023/02/26 03:22:27;;;;;;;7.93;6.83;;;8.20;99.90;;;;;;4980769;28;20573;-69
2023/02/26 03:25:18;;;;;;;7.47;6.50;;;8.20;99.90;;;;;;4964853;28;20210;-70
2023/02/26 03:28:06;;;;;;;7.37;6.60;;;8.30;99.90;;;;;;4980176;28;20235;-70
2023/02/26 03:30:54;;;;;;;10.77;7.73;;;8.30;99.90;;;;;;4945263;28;20189;-70
2023/02/26 03:33:52;;;;;;;12.00;6.90;;;8.20;99.90;;;;;;4963618;28;20189;-70
2023/02/26 03:36:30;;;;;;;8.43;7.10;;;8.20;99.90;;;;;;4977637;28;20615;-70
2023/02/26 03:39:25;;;;;;;7.93;6.70;;;8.10;99.90;;;;;;4983951;28;20186;-70
2023/02/26 03:42:27;;;;;;;8.60;6.63;;;8.00;99.90;;;;;;4981391;28;20224;-70
2023/02/26 03:45:13;;;;;;;9.33;7.20;;;8.00;99.90;;;;;;4964401;28;20287;-70
2023/02/26 03:47:44;;;;;;;8.70;6.97;;;8.00;99.90;;;;;;4976491;28;20195;-69
2023/02/26 03:50:51;;;;;;;8.30;6.40;;;8.10;99.90;;;;;;4962772;28;20196;-70
2023/02/26 03:53:50;;;;;;;8.23;6.63;;;8.00;99.90;;;;;;4942464;28;20193;-70
2023/02/26 03:56:32;;;;;;;8.25;7.35;;;7.90;99.90;;;;;;4957345;28;20516;-70
2023/02/26 03:58:58;;;;;;;7.33;6.43;;;7.90;99.90;;;;;;4972906;28;20621;-70
2023/02/26 04:01:57;;;;;;;7.50;6.73;;;7.90;99.90;;;;;;4982104;28;20188;-70
2023/02/26 04:05:00;;;;;;;7.50;6.60;;;7.90;99.90;;;;;;4982063;28;20189;-70
2023/02/26 04:07:27;;;;;;;7.20;6.50;;;7.90;99.90;;;;;;4962408;28;20189;-71
2023/02/26 04:09:55;;;;;;;8.90;6.47;;;8.00;99.90;;;;;;4982349;28;20738;-70
2023/02/26 04:12:27;;;;;;;8.50;7.00;;;8.00;99.90;;;;;;4985394;28;20197;-69
2023/02/26 04:14:56;;;;;;;9.40;6.70;;;8.00;99.90;;;;;;4963954;28;20224;-70
2023/02/26 04:17:22;;;;;;;9.73;7.80;;;8.00;99.90;;;;;;4962950;28;20206;-70
2023/02/26 04:19:49;;;;;;;9.00;7.40;;;8.10;99.90;;;;;;4980479;28;20199;-70
2023/02/26 04:22:15;;;;;;;8.20;7.00;;;8.20;99.90;;;;;;4978800;28;20284;-70
2023/02/26 04:24:42;;;;;;;8.90;6.60;;;8.20;99.90;;;;;;4978765;28;20576;-69
2023/02/26 04:27:08;;;;;;;8.53;7.63;;;8.20;99.90;;;;;;4982126;28;20827;-70
2023/02/26 04:29:36;;;;;;;11.77;7.83;;;8.20;99.90;;;;;;4978148;28;20587;-70
2023/02/26 04:32:02;;;;;;;9.97;8.23;;;8.20;99.90;;;;;;4978947;28;20196;-70
2023/02/26 04:34:28;;;;;;;11.13;7.77;;;8.30;99.90;;;;;;4980858;28;20805;-70
2023/02/26 04:36:57;;;;;;;11.10;7.17;;;8.30;99.90;;;;;;4965249;28;20205;-70
2023/02/26 04:39:23;;;;;;;8.67;7.77;;;8.30;99.90;;;;;;4963084;28;20725;-70
2023/02/26 04:41:50;;;;;;;9.13;6.87;;;8.30;99.90;;;;;;4964409;28;20189;-70
2023/02/26 04:44:16;;;;;;;8.90;7.40;;;8.20;99.90;;;;;;4974664;28;20182;-70
2023/02/26 04:46:42;;;;;;;9.33;7.80;;;8.20;99.90;;;;;;4981087;28;20197;-70
2023/02/26 04:49:08;;;;;;;9.53;7.37;;;8.30;99.90;;;;;;4963634;28;20260;-70
2023/02/26 04:51:34;;;;;;;8.57;7.67;;;8.50;99.90;;;;;;4971072;28;20197;-70
2023/02/26 04:54:01;;;;;;;11.07;7.37;;;8.50;99.90;;;;;;4981456;28;20204;-70
2023/02/26 04:56:27;;;;;;;9.17;7.07;;;8.50;99.90;;;;;;4965255;28;20292;-70
2023/02/26 04:58:53;;;;;;;7.50;6.73;;;8.40;99.90;;;;;;4979443;28;20350;-70
2023/02/26 05:01:20;;;;;;;7.30;6.43;;;8.30;99.90;;;;;;4953988;28;20606;-70
2023/02/26 05:03:46;;;;;;;7.57;6.30;;;8.30;99.90;;;;;;4983765;28;20220;-70
2023/02/26 05:06:12;;;;;;;7.83;5.87;;;8.30;99.90;;;;;;4977270;28;20254;-70
2023/02/26 05:08:41;;;;;;;6.70;6.00;;;8.20;99.90;;;;;;4983201;28;20243;-69
2023/02/26 05:11:10;;;;;;;6.63;5.93;;;8.20;99.90;;;;;;4949979;28;20221;-70
2023/02/26 05:13:37;;;;;;;6.47;5.53;;;8.10;99.90;;;;;;4978889;28;20821;-70
2023/02/26 05:16:04;;;;;;;7.43;6.67;;;8.20;99.90;;;;;;4964143;28;20185;-70
2023/02/26 05:18:31;;;;;;;8.03;5.70;;;8.20;99.90;;;;;;4972138;28;20557;-70
2023/02/26 05:20:58;;;;;;;6.27;5.67;;;8.20;99.90;;;;;;4972688;28;20213;-70
2023/02/26 05:23:26;;;;;;;8.63;6.47;;;8.20;99.90;;;;;;4986358;28;20220;-70
2023/02/26 05:25:55;;;;;;;8.13;6.47;;;8.20;99.90;;;;;;4956228;28;20182;-70
2023/02/26 05:28:23;;;;;;;6.60;5.73;;;8.20;99.90;;;;;;4958718;28;20225;-70
2023/02/26 05:30:50;;;;;;;6.37;5.77;;;8.30;99.90;;;;;;4974801;28;20189;-70
2023/02/26 05:33:16;;;;;;;7.30;6.33;;;8.30;99.90;;;;;;4985602;28;20221;-70
2023/02/26 05:35:43;;;;;;;7.03;6.23;;;8.30;99.90;;;;;;4950925;28;20226;-70
2023/02/26 05:38:09;;;;;;;8.77;6.10;;;8.40;99.90;;;;;;4965565;28;20206;-70
2023/02/26 05:40:35;;;;;;;6.83;6.13;;;8.50;99.90;;;;;;4964940;28;20182;-70
2023/02/26 05:43:01;;;;;;;7.87;6.17;;;8.60;99.90;;;;;;4983492;28;20224;-71
2023/02/26 05:45:28;;;;;;;7.30;6.20;;;8.70;99.90;;;;;;4973273;28;20251;-70
2023/02/26 05:47:55;;;;;;;10.13;7.10;;;8.80;99.90;;;;;;4967378;28;20670;-70
2023/02/26 05:50:21;;;;;;;8.13;5.80;;;8.90;99.90;;;;;;4980037;28;20193;-70
2023/02/26 05:52:48;;;;;;;7.00;6.30;;;9.00;99.90;;;;;;4980719;28;20185;-70
2023/02/26 05:55:14;;;;;;;6.77;6.10;;;9.00;99.90;;;;;;4966402;28;20256;-71
2023/02/26 05:57:41;;;;;;;7.83;6.67;;;9.20;99.90;;;;;;4967365;28;20223;-70
2023/02/26 06:00:10;;;;;;;8.83;6.43;;;9.20;99.90;;;;;;4958381;28;20208;-70
2023/02/26 06:02:36;;;;;;;7.43;6.57;;;9.40;99.90;;;;;;4983045;28;20186;-71
2023/02/26 06:05:05;;;;;;;6.90;6.20;;;9.40;99.90;;;;;;4970491;28;20213;-70
2023/02/26 06:07:31;;;;;;;7.77;6.97;;;9.50;99.90;;;;;;4948151;28;20201;-70
2023/02/26 06:09:58;;;;;;;6.20;5.60;;;9.60;99.90;;;;;;4982071;28;20232;-70
2023/02/26 06:12:24;;;;;;;7.13;6.40;;;9.60;99.90;;;;;;4949796;28;20603;-70
2023/02/26 06:14:50;;;;;;;11.40;6.77;;;9.70;99.90;;;;;;4964125;28;20196;-70
2023/02/26 06:17:16;;;;;;;7.30;6.60;;;9.70;99.90;;;;;;4966817;28;20262;-70
2023/02/26 06:19:43;;;;;;;7.27;6.50;;;9.80;99.90;;;;;;4963743;28;20553;-70
2023/02/26 06:22:09;;;;;;;7.20;6.50;;;9.90;99.90;;;;;;4964913;28;20200;-70
2023/02/26 06:24:36;;;;;;;7.73;6.80;;;9.90;99.90;;;;;;4966338;28;20200;-70
2023/02/26 06:27:02;;;;;;;8.37;7.43;;;10.00;99.90;;;;;;4981383;28;20208;-70
2023/02/26 06:29:28;;;;;;;8.80;7.60;;;10.10;99.90;;;;;;4982715;28;20193;-70
2023/02/26 06:31:54;;;;;;;10.50;8.00;;;10.10;99.90;;;;;;4975656;28;20281;-70
2023/02/26 06:34:21;;;;;;;9.37;7.40;;;10.20;99.90;;;;;;4965795;28;20538;-70
2023/02/26 06:36:48;;;;;;;8.67;7.77;;;10.20;99.90;;;;;;4981793;28;20217;-70
2023/02/26 06:39:15;;;;;;;8.93;7.47;;;10.10;99.90;;;;;;4977648;28;20201;-70
2023/02/26 06:41:41;;;;;;;7.97;7.17;;;10.20;99.90;;;;;;4964517;28;20189;-70
2023/02/26 06:44:09;;;;;;;8.23;7.50;;;10.20;99.90;;;;;;4972707;28;20203;-70
2023/02/26 06:46:35;;;;;;;9.60;8.20;;;10.20;99.90;;;;;;4975949;28;20190;-70
2023/02/26 06:49:02;;;;;;;9.10;8.07;;;10.30;99.90;;;;;;4980162;28;20280;-70
2023/02/26 06:51:29;;;;;;;7.80;7.00;;;10.30;99.90;;;;;;4965704;28;20188;-70
2023/02/26 06:53:57;;;;;;;9.70;8.23;;;10.30;99.90;;;;;;4977478;28;20802;-70
2023/02/26 06:56:24;;;;;;;8.63;7.67;;;10.40;99.90;;;;;;4976125;28;20842;-70
2023/02/26 06:58:50;;;;;;;8.17;7.37;;;10.40;99.90;;;;;;4978924;28;20212;-70
2023/02/26 07:01:17;;;;;;;8.90;7.83;;;10.40;99.90;;;;;;4980324;28;20867;-70
2023/02/26 07:03:43;;;;;;;10.43;7.53;;;10.40;99.90;;;;;;4961214;28;20649;-70
2023/02/26 07:06:12;;;;;;;8.30;7.50;;;10.50;99.90;;;;;;4977062;28;20181;-70
2023/02/26 07:08:39;;;;;;;9.37;7.63;;;10.40;99.90;;;;;;4957485;28;20198;-70
2023/02/26 07:11:05;;;;;;;8.23;7.00;;;10.30;99.90;;;;;;4959534;28;20190;-70
2023/02/26 07:13:31;;;;;;;8.13;6.57;;;10.20;99.90;;;;;;4982042;28;20275;-70
2023/02/26 07:15:57;;;;;;;9.03;6.07;;;10.00;99.90;;;;;;4982956;28;20623;-70
2023/02/26 07:18:26;;;;;;;8.20;6.00;;;9.90;99.90;;;;;;4978005;28;20214;-69
2023/02/26 07:20:54;;;;;;;7.23;5.47;;;9.80;99.90;;;;;;4980632;28;20205;-70
2023/02/26 07:23:20;;;;;;;8.40;6.27;;;9.90;99.90;;;;;;4971843;28;20813;-70
2023/02/26 07:25:49;;;;;;;8.17;5.90;;;10.00;99.90;;;;;;4980789;28;20728;-70
2023/02/26 07:28:15;;;;;;;8.80;5.60;;;10.00;99.90;;;;;;4969766;28;20748;-70
2023/02/26 07:30:41;;;;;;;8.47;6.03;;;10.00;99.90;;;;;;4977252;28;20537;-70
2023/02/26 07:33:08;;;;;;;6.03;5.43;;;10.00;99.90;;;;;;4978173;28;20228;-71
2023/02/26 07:35:35;;;;;;;6.33;5.57;;;10.10;99.90;;;;;;4983563;28;20193;-70
2023/02/26 07:38:03;;;;;;;5.93;4.80;;;10.10;99.90;;;;;;4979738;28;20263;-70
2023/02/26 07:40:29;;;;;;;6.13;5.43;;;10.10;99.90;;;;;;4962315;28;20204;-70
2023/02/26 07:42:56;;;;;;;8.20;5.30;;;10.30;99.90;;;;;;4981760;28;20617;-70
2023/02/26 07:45:22;;;;;;;7.83;6.27;;;10.20;99.90;;;;;;4962176;28;20281;-71
2023/02/26 07:47:50;;;;;;;6.67;5.37;;;10.40;99.90;;;;;;4962792;28;20189;-70
2023/02/26 07:50:18;;;;;;;8.43;5.17;;;10.40;99.90;;;;;;4971702;28;20193;-70
2023/02/26 07:52:45;;;;;;;6.33;5.20;;;10.40;99.90;;;;;;4976753;28;20270;-70
2023/02/26 07:55:12;;;;;;;6.73;5.30;;;10.40;99.90;;;;;;4979855;28;20188;-70
2023/02/26 07:57:39;;;;;;;6.50;5.20;;;10.40;99.90;;;;;;4976354;28;20237;-70
2023/02/26 08:00:07;;;;;;;6.57;5.83;;;10.50;99.90;;;;;;4960567;28;20279;-70
2023/02/26 08:02:33;;;;;;;6.00;5.10;;;10.60;99.90;;;;;;4978401;28;20190;-70
2023/02/26 08:05:00;;;;;;;6.90;6.07;;;10.60;99.90;;;;;;4973858;28;20190;-70
2023/02/26 08:07:26;;;;;;;6.80;6.10;;;11.00;99.90;;;;;;4968441;28;20197;-70
2023/02/26 08:09:52;;;;;;;8.33;6.17;;;11.10;99.90;;;;;;4960530;28;20197;-70
2023/02/26 08:12:18;;;;;;;7.57;6.33;;;11.10;99.90;;;;;;4981159;28;20197;-70
2023/02/26 08:14:46;;;;;;;10.40;7.00;;;11.10;99.90;;;;;;4977309;28;20300;-70
2023/02/26 08:17:12;;;;;;;8.57;7.20;;;11.50;99.90;;;;;;4961029;28;20292;-70
2023/02/26 08:19:38;;;;;;;8.63;6.70;;;12.00;99.90;;;;;;4981569;28;20276;-70
2023/02/26 08:22:05;;;;;;;9.37;6.63;;;12.40;99.90;;;;;;4962239;28;20630;-71
2023/02/26 08:24:31;;;;;;;10.97;6.93;;;12.50;99.90;;;;;;4979270;28;20981;-70
2023/02/26 08:26:58;;;;;;;8.23;7.13;;;12.40;99.90;;;;;;4960008;28;20207;-70
2023/02/26 08:29:24;;;;;;;10.53;8.13;;;12.30;99.90;;;;;;4975580;28;20194;-70
2023/02/26 08:31:51;;;;;;;11.33;7.93;;;12.60;99.90;;;;;;4980000;28;20582;-70
2023/02/26 08:34:18;;;;;;;12.80;7.70;;;12.80;99.90;;;;;;4982282;28;20185;-70
2023/02/26 08:36:44;;;;;;;7.83;7.03;;;12.70;99.90;;;;;;4950195;28;20566;-70
2023/02/26 08:39:11;;;;;;;9.23;7.50;;;12.80;99.90;;;;;;4981188;28;20190;-70
2023/02/26 08:41:37;;;;;;;9.40;7.93;;;13.00;99.90;;;;;;4981295;28;20201;-71
2023/02/26 08:44:04;;;;;;;9.13;8.23;;;13.00;99.90;;;;;;4984697;28;20197;-72
2023/02/26 08:46:30;;;;;;;8.27;7.30;;;13.10;99.90;;;;;;4980434;28;20224;-70
2023/02/26 08:48:56;;;;;;;9.90;8.30;;;13.10;99.90;;;;;;4962914;28;20825;-70
2023/02/26 08:51:23;;;;;;;10.00;8.20;;;13.20;99.90;;;;;;4978924;28;20201;-70
2023/02/26 08:53:50;;;;;;;8.53;7.67;;;13.30;99.90;;;;;;4968119;28;20243;-70
2023/02/26 08:56:17;;;;;;;10.63;8.60;;;13.40;99.90;;;;;;4953343;28;20243;-71
2023/02/26 08:58:46;;;;;;;8.90;8.00;;;13.40;99.90;;;;;;4962783;28;20236;-70
2023/02/26 09:01:17;;;;;;;10.13;8.33;;;13.50;99.90;;;;;;4977795;28;20210;-70
2023/02/26 09:03:44;;;;;;;8.30;7.50;;;13.40;99.90;;;;;;4977777;28;20276;-70
2023/02/26 09:06:10;;;;;;;12.80;8.10;;;13.40;99.90;;;;;;4983404;28;20248;-70
2023/02/26 09:08:39;;;;;;;8.77;7.87;;;13.40;99.90;;;;;;4963973;28;20194;-70
2023/02/26 09:11:05;;;;;;;8.57;7.77;;;13.50;99.90;;;;;;4980890;28;20224;-71
2023/02/26 09:13:32;;;;;;;9.13;7.97;;;13.60;99.90;;;;;;4968006;28;20533;-71
2023/02/26 09:15:59;;;;;;;12.33;7.83;;;13.70;99.90;;;;;;4986389;28;20201;-70
2023/02/26 09:18:25;;;;;;;8.90;7.10;;;13.80;99.90;;;;;;4983318;28;20209;-70
2023/02/26 09:20:51;;;;;;;8.13;7.20;;;13.90;99.90;;;;;;4971768;28;20189;-70
2023/02/26 09:23:18;;;;;;;9.40;7.90;;;14.00;99.90;;;;;;4985270;28;20530;-70
2023/02/26 09:25:44;;;;;;;11.03;8.30;;;14.00;99.90;;;;;;4986956;28;20188;-70
2023/02/26 09:28:11;;;;;;;9.53;7.93;;;14.20;99.90;;;;;;4987392;28;20198;-71
2023/02/26 09:30:37;;;;;;;9.43;8.00;;;14.30;99.90;;;;;;4990990;28;20213;-70
2023/02/26 09:33:03;;;;;;;13.37;7.97;;;14.40;99.90;;;;;;4953937;28;20251;-70
2023/02/26 09:35:30;;;;;;;11.00;8.20;;;14.40;99.90;;;;;;4979351;28;20848;-70
2023/02/26 09:37:56;;;;;;;12.13;10.23;;;14.40;99.90;;;;;;4973645;28;20209;-70
2023/02/26 09:40:49;;;;;;;12.03;9.80;;;14.60;99.90;;;;;;4955792;28;20205;-70
2023/02/26 09:43:46;;;;;;;8.20;7.40;;;14.50;99.90;;;;;;4978502;28;20208;-70
2023/02/26 09:46:46;;;;;;;8.90;7.60;;;14.70;99.90;;;;;;4989168;28;20220;-71
2023/02/26 09:49:45;;;;;;;8.37;7.30;;;14.70;99.90;;;;;;4979415;28;20236;-70
2023/02/26 09:52:33;;;;;;;9.40;7.30;;;14.80;99.90;;;;;;4977161;28;20205;-70
2023/02/26 09:55:11;;;;;;;9.10;7.50;;;14.80;99.90;;;;;;4959001;28;20213;-70
2023/02/26 09:57:44;;;;;;;7.93;7.13;;;14.90;99.90;;;;;;4983053;28;20309;-70
2023/02/26 10:00:59;;;;;;;10.30;7.70;;;15.00;99.90;;;;;;4985205;28;20209;-71
2023/02/26 10:03:55;;;;;;;13.97;7.97;;;15.00;99.90;;;;;;4938373;28;20244;-70
2023/02/26 10:06:31;;;;;;;10.17;7.53;;;15.00;99.90;;;;;;4962116;28;20185;-70
2023/02/26 10:09:42;;;;;;;9.73;7.97;;;15.10;99.90;;;;;;4983015;28;20189;-70
2023/02/26 10:12:23;;;;;;;11.37;8.70;;;15.10;99.90;;;;;;4950066;28;20213;-70
2023/02/26 10:15:09;;;;;;;8.10;6.93;;;15.20;99.90;;;;;;4983348;28;20200;-70
2023/02/26 10:18:03;;;;;;;8.43;7.57;;;15.30;99.90;;;;;;4977216;28;20228;-70
2023/02/26 10:21:03;;;;;;;11.87;6.97;;;15.30;99.90;;;;;;4963761;28;20269;-71
2023/02/26 10:23:42;;;;;;;8.23;7.43;;;15.40;99.90;;;;;;4971559;28;20196;-70
2023/02/26 10:26:13;;;;;;;9.40;7.50;;;15.40;99.90;;;;;;4981571;28;20287;-70
2023/02/26 10:28:48;;;;;;;10.37;7.90;;;15.60;99.90;;;;;;4979080;28;20192;-71
2023/02/26 10:31:56;;;;;;;14.53;8.13;;;15.70;99.90;;;;;;4982932;28;20206;-70
2023/02/26 10:35:08;;;;;;;10.77;8.10;;;15.70;99.90;;;;;;4986249;28;20190;-71
2023/02/26 10:37:52;;;;;;;8.53;7.63;;;15.80;99.90;;;;;;4909082;29;21021;-71
2023/02/26 10:40:41;;;;;;;8.23;7.43;;;15.90;99.90;;;;;;4905186;29;20192;-71
2023/02/26 10:43:24;;;;;;;8.20;7.33;;;15.90;99.90;;;;;;4935011;28;20197;-70
2023/02/26 10:46:27;;;;;;;8.27;7.10;;;15.90;99.90;;;;;;4957317;28;20202;-70
2023/02/26 10:49:24;;;;;;;8.27;6.87;;;16.10;99.90;;;;;;4956926;28;20213;-71
2023/02/26 10:51:53;;;;;;;8.30;7.40;;;16.30;99.90;;;;;;4983267;28;20300;-71
2023/02/26 10:54:40;;;;;;;9.10;7.20;;;16.50;99.90;;;;;;4983689;28;20190;-70
2023/02/26 10:57:25;;;;;;;8.43;7.60;;;16.50;99.90;;;;;;4980015;28;20213;-70
2023/02/26 10:59:52;;;;;;;10.23;7.40;;;16.70;99.90;;;;;;4979185;28;20252;-70
2023/02/26 11:02:48;;;;;;;8.60;7.20;;;16.80;99.90;;;;;;4950289;28;20897;-70
2023/02/26 11:05:27;;;;;;;8.73;7.83;;;16.70;99.90;;;;;;4974655;28;20217;-71
2023/02/26 11:08:25;;;;;;;11.10;7.43;;;16.90;99.90;;;;;;4980198;28;20201;-71
2023/02/26 11:10:59;;;;;;;9.87;7.90;;;16.90;99.90;;;;;;4957729;28;20252;-71
2023/02/26 11:13:29;;;;;;;13.00;7.43;;;17.00;99.90;;;;;;4961580;28;20232;-71
2023/02/26 11:16:01;;;;;;;9.80;7.30;;;17.00;99.90;;;;;;4983367;28;20237;-71
2023/02/26 11:18:43;;;;;;;8.47;7.57;;;17.70;99.90;;;;;;4963460;28;20953;-71
2023/02/26 11:21:22;;;;;;;10.80;7.80;;;17.90;99.90;;;;;;4978303;28;20193;-70
2023/02/26 11:24:32;;;;;;;9.50;8.00;;;17.30;99.90;;;;;;4944770;28;20239;-70
2023/02/26 11:27:02;;;;;;;9.67;8.00;;;17.00;99.90;;;;;;4916634;29;20985;-70
2023/02/26 11:29:37;;;;;;;8.67;7.77;;;16.80;99.90;;;;;;4907895;29;20848;-70
2023/02/26 11:32:13;;;;;;;10.50;7.97;;;16.80;99.90;;;;;;4928599;28;20197;-70
2023/02/26 11:34:50;;;;;;;9.57;8.20;;;16.70;99.90;;;;;;4985395;28;20246;-70
2023/02/26 11:37:26;;;;;;;10.67;8.17;;;16.60;99.90;;;;;;4961947;28;20742;-70
2023/02/26 11:40:02;;;;;;;9.17;8.00;;;16.40;99.90;;;;;;4983735;28;20696;-71
2023/02/26 11:42:29;;;;;;;11.03;8.77;;;16.30;99.90;;;;;;4982625;28;20559;-71
2023/02/26 11:44:57;;;;;;;9.10;8.20;;;16.20;99.90;;;;;;4979772;28;20185;-71
2023/02/26 11:47:29;;;;;;;9.80;8.53;;;16.30;99.90;;;;;;4960537;28;20192;-70
2023/02/26 11:50:09;;;;;;;16.63;8.07;;;16.30;99.90;;;;;;4963072;28;20255;-71
2023/02/26 11:52:42;;;;;;;8.80;7.90;;;16.40;99.90;;;;;;4981753;28;20687;-70
2023/02/26 11:55:31;;;;;;;10.47;7.93;;;16.50;99.90;;;;;;4948610;28;20185;-71
2023/02/26 11:57:57;;;;;;;8.43;7.63;;;16.40;99.90;;;;;;4966031;28;20287;-70
2023/02/26 12:00:31;;;;;;;11.53;8.17;;;16.40;99.90;;;;;;4982620;28;20834;-70
2023/02/26 12:03:14;;;;;;;9.23;7.73;;;16.20;99.90;;;;;;4961520;28;20221;-70
2023/02/26 12:05:40;;;;;;;10.80;8.80;;;16.20;99.90;;;;;;4974010;28;20197;-70
2023/02/26 12:08:37;;;;;;;9.87;8.70;;;16.20;99.90;;;;;;4960358;28;20552;-70
2023/02/26 12:11:40;;;;;;;9.60;8.60;;;16.20;99.90;;;;;;4980855;28;20552;-70
2023/02/26 12:14:39;;;;;;;10.80;8.87;;;16.20;99.90;;;;;;4983679;28;20201;-70
2023/02/26 12:17:21;;;;;;;10.00;8.53;;;16.30;99.90;;;;;;4981057;28;20209;-70
2023/02/26 12:20:27;;;;;;;9.40;8.10;;;16.30;99.90;;;;;;4974727;28;20189;-70
2023/02/26 12:23:08;;;;;;;9.43;8.17;;;16.20;99.90;;;;;;4981084;28;20189;-70
2023/02/26 12:26:33;;;;;;;12.57;8.73;;;16.20;99.90;;;;;;4978759;28;20190;-71
2023/02/26 12:29:32;;;;;;;9.63;7.73;;;16.30;99.90;;;;;;4917830;29;20343;-70
2023/02/26 12:33:04;;;;;;;8.90;8.03;;;16.30;99.90;;;;;;4978027;28;20648;-70
2023/02/26 12:36:04;;;;;;;8.43;7.53;;;16.10;99.90;;;;;;4921599;29;20335;-70
2023/02/26 12:38:58;;;;;;;8.00;6.97;;;16.00;99.90;;;;;;4980438;28;20711;-71
2023/02/26 12:42:29;;;;;;;7.70;6.93;;;15.80;99.90;;;;;;4983656;28;20609;-71
2023/02/26 12:45:10;;;;;;;7.60;6.80;;;15.70;99.90;;;;;;4919130;29;20285;-70
2023/02/26 12:48:01;;;;;;;8.97;7.40;;;15.70;99.90;;;;;;4914589;29;20191;-70
2023/02/26 12:51:22;;;;;;;9.07;7.07;;;15.70;99.90;;;;;;4968286;28;20213;-70
2023/02/26 12:54:07;;;;;;;8.50;7.47;;;15.70;99.90;;;;;;4954301;28;20224;-70
2023/02/26 12:56:48;;;;;;;8.00;7.20;;;15.80;99.90;;;;;;4967831;28;20224;-70
2023/02/26 12:59:39;;;;;;;9.47;7.13;;;15.80;99.90;;;;;;4982536;28;20276;-70
2023/02/26 13:02:51;;;;;;;11.13;7.57;;;15.70;99.90;;;;;;4960480;28;20669;-70
2023/02/26 13:06:12;;;;;;;7.97;7.20;;;15.80;99.90;;;;;;4983388;28;20186;-71
2023/02/26 13:09:19;;;;;;;12.27;7.97;;;15.90;99.90;;;;;;4965601;28;20180;-70
2023/02/26 13:12:16;;;;;;;8.30;7.33;;;15.80;99.90;;;;;;4957464;28;20601;-71
2023/02/26 13:15:07;;;;;;;11.63;7.37;;;15.50;99.90;;;;;;4952755;28;20708;-70
2023/02/26 13:18:05;;;;;;;8.43;7.50;;;15.50;99.90;;;;;;4977984;28;20644;-70
2023/02/26 13:20:36;;;;;;;8.87;7.87;;;15.50;99.90;;;;;;4984662;28;20253;-71
2023/02/26 13:23:23;;;;;;;8.57;7.73;;;15.50;99.90;;;;;;4952541;28;20189;-70
2023/02/26 13:26:05;;;;;;;10.20;8.50;;;15.50;99.90;;;;;;4982476;28;20284;-70
2023/02/26 13:28:52;;;;;;;10.07;8.83;;;15.50;99.90;;;;;;4964944;28;20193;-71
2023/02/26 13:31:29;;;;;;;12.37;8.27;;;15.60;99.90;;;;;;4977532;28;20193;-70
2023/02/26 13:34:01;;;;;;;10.17;8.43;;;15.60;99.90;;;;;;4988151;28;20208;-70
2023/02/26 13:36:28;;;;;;;14.20;8.83;;;15.60;99.90;;;;;;4967112;28;20317;-70
2023/02/26 13:39:10;;;;;;;9.90;8.03;;;15.70;99.90;;;;;;4982950;28;20584;-70
2023/02/26 13:42:04;;;;;;;13.63;8.37;;;15.70;99.90;;;;;;4984016;28;20568;-70